Terminal Aerodrome Forecast
Issued by NWS

Home | Current Version | Previous Version | Text Only | Print | Product List | Glossary On
Versions: 1 2 3 4 5 6 7 8 9 10 11 12 13 14 15 16 17 18 19 20
000
FTUS46 KMTR 210525
TAFSTS
TAF
KSTS 210525Z 2106/2206 30004KT P6SM FEW025 SCT200
     FM210800 VRB02KT 5SM BR SCT020 BKN150
      TEMPO 2111/2115 1SM BR SCT001
     FM211800 VRB02KT 6SM BR VCSH SCT012 BKN020 OVC080
     FM212100 21005KT 6SM -RA BR BKN020 OVC060
     FM220100 20006KT 4SM RA BR BKN012 OVC030=

USA.gov is the U.S. government's official web portal to all federal, state and local government web resources and services.